Virtual Norwegian is not affiliated with Norwegian Air Shuttle in any way.
If you are looking for the real "Norwegian", or you wish to book Norwegian flights, please visit Norwegian.com


We use cookies to ensure you get the best experience on our website.   ACCEPT

LOWW - VIE - Vienna (Schwechat)

General Info Alternate Airport
ICAO: LOWW Elevation: 600 ft ICAO: LOWG
IATA: VIE Country: Austria IATA: GRZ
City: Vienna Charts: Log in to view charts City: Graz
Name: Schwechat Hub: No Name Graz
General Info
ICAO: LOWW
IATA: VIE
City: Vienna
Name: Schwechat
Elevation: 600 ft
Country: Austria
Charts: Log in to view charts
Hub: No
 
Alternate Airport
ICAO: LOWG
IATA: GRZ
City: Graz
Name: Graz

Weather
241620Z 14008KT 3900 BR FEW001 BKN002 04/04 Q1018 TEMPO 2500 OVC001
Weather
241620Z 14008KT 3900 BR FEW001 BKN002 04/04 Q1018 TEMPO 2500 OVC001

Runway Info
11
Length ILS/LOC Course
3500 m 110.30 112
16
Length ILS/LOC Course
3600 m 108.50 161
29
Length ILS/LOC Course
3500 m 109.55 292
34
Length ILS/LOC Course
3600 m 108.10 341

NOTAMs
NOTAMs currently unavailable.
NOTAMs
NOTAMs currently unavailable

Route map
Airport
Airport (hub)